createdAt,value
2019-03-18T00:00:24.349Z,8.64
2019-03-18T00:02:50.514Z,8.63
2019-03-18T00:05:16.689Z,8.63
2019-03-18T00:07:44.147Z,8.64
2019-03-18T00:10:10.231Z,8.57
2019-03-18T00:12:36.613Z,8.55
2019-03-18T00:15:04.889Z,8.54
2019-03-18T00:17:31.056Z,8.53
2019-03-18T00:19:57.138Z,8.51
2019-03-18T00:22:23.285Z,8.55
2019-03-18T00:24:49.567Z,8.59
2019-03-18T00:27:15.818Z,8.59
2019-03-18T00:29:42.040Z,8.63
2019-03-18T00:32:08.083Z,8.67
2019-03-18T00:34:34.414Z,8.69
2019-03-18T00:37:00.602Z,8.72
2019-03-18T00:39:26.737Z,8.73
2019-03-18T00:41:53.015Z,8.72
2019-03-18T00:44:19.347Z,8.72
2019-03-18T00:46:45.740Z,8.71
2019-03-18T00:49:11.922Z,8.71
2019-03-18T00:51:38.106Z,8.70
2019-03-18T00:54:04.349Z,8.65
2019-03-18T00:56:30.424Z,8.61
2019-03-18T00:58:56.593Z,8.59
2019-03-18T01:01:22.938Z,8.56
2019-03-18T01:03:48.987Z,8.52
2019-03-18T01:06:15.160Z,8.53
2019-03-18T01:08:41.461Z,8.58
2019-03-18T01:11:07.741Z,8.58
2019-03-18T01:13:33.865Z,8.55
2019-03-18T01:16:00.153Z,8.52
2019-03-18T01:18:26.318Z,8.54
2019-03-18T01:20:52.381Z,8.59
2019-03-18T01:23:18.396Z,8.62
2019-03-18T01:25:44.717Z,8.65
2019-03-18T01:28:10.779Z,8.66
2019-03-18T01:30:36.855Z,8.64
2019-03-18T01:33:05.027Z,8.63
2019-03-18T01:35:30.979Z,8.59
2019-03-18T01:37:57.268Z,8.47
2019-03-18T01:40:23.404Z,8.42
2019-03-18T01:42:49.665Z,8.42
2019-03-18T01:45:17.097Z,8.40
2019-03-18T01:47:43.070Z,8.40
2019-03-18T01:50:10.617Z,8.38
2019-03-18T01:52:36.808Z,8.35
2019-03-18T01:55:04.654Z,8.28
2019-03-18T01:57:30.719Z,8.32
2019-03-18T01:59:56.910Z,8.29
2019-03-18T02:02:23.056Z,8.21
2019-03-18T02:04:49.069Z,8.20
2019-03-18T02:07:16.462Z,8.24
2019-03-18T02:09:42.509Z,8.25
2019-03-18T02:12:08.579Z,8.32
2019-03-18T02:14:34.788Z,8.36
2019-03-18T02:17:00.920Z,8.40
2019-03-18T02:19:26.953Z,8.38
2019-03-18T02:21:53.014Z,8.31
2019-03-18T02:24:19.202Z,8.28
2019-03-18T02:26:45.374Z,8.25
2019-03-18T02:29:11.514Z,8.14
2019-03-18T02:31:37.543Z,8.07
2019-03-18T02:34:03.634Z,8.06
2019-03-18T02:36:29.842Z,8.04
2019-03-18T02:38:56.160Z,8.01
2019-03-18T02:41:22.416Z,7.94
2019-03-18T02:43:48.379Z,7.86
2019-03-18T02:46:14.508Z,7.88
2019-03-18T02:48:40.788Z,7.76
2019-03-18T02:51:07.020Z,7.75
2019-03-18T02:53:33.153Z,7.85
2019-03-18T02:55:59.295Z,7.75
2019-03-18T02:58:25.598Z,7.76
2019-03-18T03:00:51.778Z,7.78
2019-03-18T03:03:17.830Z,7.72
2019-03-18T03:05:43.878Z,7.77
2019-03-18T03:08:09.957Z,7.75
2019-03-18T03:10:36.052Z,7.79
2019-03-18T03:13:02.056Z,7.70
2019-03-18T03:15:28.093Z,7.72
2019-03-18T03:17:54.292Z,7.72
2019-03-18T03:20:20.460Z,7.74
2019-03-18T03:22:46.684Z,7.74
2019-03-18T03:25:15.905Z,7.77
2019-03-18T03:27:42.015Z,7.70
2019-03-18T03:30:12.913Z,7.77
2019-03-18T03:32:39.073Z,7.72
2019-03-18T03:35:06.159Z,7.60
2019-03-18T03:37:32.099Z,7.64
2019-03-18T03:39:58.294Z,7.63
2019-03-18T03:42:24.502Z,7.51
2019-03-18T03:44:50.649Z,7.54
2019-03-18T03:47:16.845Z,7.49
2019-03-18T03:49:42.772Z,7.46
2019-03-18T03:52:08.978Z,7.41
2019-03-18T03:54:35.043Z,7.41
2019-03-18T03:57:01.318Z,7.38
2019-03-18T03:59:27.386Z,7.41
2019-03-18T04:01:53.625Z,7.34
2019-03-18T04:04:19.639Z,7.36
2019-03-18T04:06:45.930Z,7.25
2019-03-18T04:09:12.211Z,7.17
2019-03-18T04:11:38.263Z,7.16
2019-03-18T04:14:04.312Z,7.04
2019-03-18T04:16:30.415Z,7.04
2019-03-18T04:18:56.521Z,6.94
2019-03-18T04:21:22.673Z,6.83
2019-03-18T04:23:48.957Z,6.77
2019-03-18T04:26:15.132Z,6.70
2019-03-18T04:28:41.258Z,6.64
2019-03-18T04:31:07.433Z,6.67
2019-03-18T04:33:33.395Z,6.75
2019-03-18T04:35:59.466Z,6.63
2019-03-18T04:38:25.643Z,6.60
2019-03-18T04:40:51.799Z,6.53
2019-03-18T04:43:17.923Z,6.51
2019-03-18T04:45:44.140Z,6.44
2019-03-18T04:48:10.402Z,6.27
2019-03-18T04:50:43.778Z,6.24
2019-03-18T04:53:09.935Z,6.15
2019-03-18T04:55:36.071Z,6.22
2019-03-18T04:58:02.103Z,6.23
2019-03-18T05:00:28.355Z,6.21
2019-03-18T05:02:54.646Z,6.06
2019-03-18T05:05:20.873Z,6.00
2019-03-18T05:07:46.916Z,5.99
2019-03-18T05:10:13.167Z,5.89
2019-03-18T05:12:39.453Z,5.94
2019-03-18T05:15:09.151Z,6.03
2019-03-18T05:17:35.302Z,6.05
2019-03-18T05:20:01.476Z,5.93
2019-03-18T05:22:27.625Z,5.83
2019-03-18T05:24:53.801Z,5.84
2019-03-18T05:27:20.054Z,5.91
2019-03-18T05:29:46.322Z,5.89
2019-03-18T05:32:12.460Z,5.98
2019-03-18T05:34:40.234Z,5.89
2019-03-18T05:37:06.491Z,5.94
2019-03-18T05:39:32.829Z,5.95
2019-03-18T05:41:59.066Z,5.98
2019-03-18T05:44:25.217Z,5.91
2019-03-18T05:46:51.449Z,5.82
2019-03-18T05:49:17.512Z,5.73
2019-03-18T05:51:43.539Z,5.64
2019-03-18T05:54:09.735Z,5.69
2019-03-18T05:56:35.888Z,5.75
2019-03-18T05:59:02.015Z,5.78
2019-03-18T06:01:28.274Z,5.88
2019-03-18T06:03:54.554Z,5.92
2019-03-18T06:06:20.826Z,5.91
2019-03-18T06:08:46.852Z,5.97
2019-03-18T06:11:13.042Z,5.92
2019-03-18T06:13:39.303Z,5.96
2019-03-18T06:16:05.230Z,6.04
2019-03-18T06:18:31.170Z,5.86
2019-03-18T06:20:57.106Z,5.82
2019-03-18T06:23:24.566Z,5.74
2019-03-18T06:25:50.523Z,5.73
2019-03-18T06:28:16.543Z,5.62
2019-03-18T06:30:42.512Z,5.60
2019-03-18T06:33:08.436Z,5.60
2019-03-18T06:35:34.453Z,5.63
2019-03-18T06:38:00.408Z,5.65
2019-03-18T06:40:26.355Z,5.61
2019-03-18T06:42:52.392Z,5.65
2019-03-18T06:45:18.425Z,5.69
2019-03-18T06:47:44.656Z,5.74
2019-03-18T06:50:11.490Z,5.74
2019-03-18T06:52:37.541Z,5.71
2019-03-18T06:55:06.648Z,5.71
2019-03-18T06:57:32.584Z,5.74
2019-03-18T06:59:58.602Z,5.82
2019-03-18T07:02:25.055Z,5.81
2019-03-18T07:04:51.312Z,5.78
2019-03-18T07:07:17.581Z,5.72
2019-03-18T07:09:43.722Z,5.74
2019-03-18T07:12:10.980Z,5.74
2019-03-18T07:14:40.024Z,5.79
2019-03-18T07:17:06.082Z,5.74
2019-03-18T07:19:32.310Z,5.68
2019-03-18T07:21:58.500Z,5.66
2019-03-18T07:24:24.808Z,5.70
2019-03-18T07:26:51.057Z,5.72
2019-03-18T07:29:17.382Z,5.72
2019-03-18T07:31:43.673Z,5.65
2019-03-18T07:34:09.947Z,5.66
2019-03-18T07:36:36.228Z,5.67
2019-03-18T07:39:04.275Z,5.66
2019-03-18T07:41:30.571Z,5.63
2019-03-18T07:43:56.842Z,5.57
2019-03-18T07:46:23.143Z,5.57
2019-03-18T07:48:49.432Z,5.54
2019-03-18T07:51:15.719Z,5.56
2019-03-18T07:53:41.894Z,5.49
2019-03-18T07:56:10.065Z,5.56
2019-03-18T07:58:36.480Z,5.61
2019-03-18T08:01:02.954Z,5.55
2019-03-18T08:03:29.343Z,5.59
2019-03-18T08:05:55.662Z,5.55
2019-03-18T08:08:22.025Z,5.64
2019-03-18T08:10:48.260Z,5.65
2019-03-18T08:13:14.598Z,5.64
2019-03-18T08:15:40.733Z,5.68
2019-03-18T08:18:07.125Z,5.73
2019-03-18T08:20:33.056Z,5.70
2019-03-18T08:23:00.924Z,5.70
2019-03-18T08:25:27.178Z,5.75
2019-03-18T08:27:53.405Z,5.80
2019-03-18T08:30:19.772Z,5.82
2019-03-18T08:32:46.059Z,5.81
2019-03-18T08:35:12.330Z,5.85
2019-03-18T08:37:38.608Z,5.79
2019-03-18T08:40:08.133Z,5.76
2019-03-18T08:42:34.509Z,5.71
2019-03-18T08:45:00.775Z,5.69
2019-03-18T08:47:27.183Z,5.74
2019-03-18T08:49:53.474Z,5.80
2019-03-18T08:52:19.742Z,5.75
2019-03-18T08:54:45.932Z,5.80
2019-03-18T08:57:12.263Z,5.77
2019-03-18T08:59:38.598Z,5.75
2019-03-18T09:02:04.853Z,5.78
2019-03-18T09:04:31.379Z,5.84
2019-03-18T09:06:57.646Z,5.91
2019-03-18T09:09:23.900Z,5.87
2019-03-18T09:11:50.267Z,5.78
2019-03-18T09:14:16.517Z,5.79
2019-03-18T09:16:42.763Z,5.86
2019-03-18T09:19:09.399Z,5.84
2019-03-18T09:21:35.866Z,5.88
2019-03-18T09:24:02.008Z,5.87
2019-03-18T09:26:28.281Z,5.86
2019-03-18T09:28:54.566Z,5.88
2019-03-18T09:31:20.806Z,5.97
2019-03-18T09:33:47.149Z,6.07
2019-03-18T09:36:13.291Z,6.17
2019-03-18T09:38:39.322Z,5.97
2019-03-18T09:41:05.343Z,6.09
2019-03-18T09:43:33.411Z,6.12
2019-03-18T09:45:59.671Z,6.08
2019-03-18T09:48:25.827Z,6.11
2019-03-18T09:50:52.259Z,6.12
2019-03-18T09:53:18.199Z,6.00
2019-03-18T09:55:44.474Z,6.00
2019-03-18T09:58:10.667Z,6.00
2019-03-18T10:00:36.941Z,5.94
2019-03-18T10:03:03.056Z,5.89
2019-03-18T10:05:29.355Z,5.91
2019-03-18T10:07:55.671Z,5.95
2019-03-18T10:10:21.942Z,5.88
2019-03-18T10:12:48.021Z,5.80
2019-03-18T10:15:16.982Z,5.79
2019-03-18T10:17:43.351Z,5.80
2019-03-18T10:20:09.623Z,5.85
2019-03-18T10:22:36.147Z,5.73
2019-03-18T10:25:04.402Z,5.77
2019-03-18T10:27:31.081Z,5.79
2019-03-18T10:29:57.425Z,5.83
2019-03-18T10:32:23.733Z,5.82
2019-03-18T10:34:51.562Z,5.82
2019-03-18T10:37:17.796Z,5.90
2019-03-18T10:39:44.220Z,5.98
2019-03-18T10:42:10.563Z,6.07
2019-03-18T10:44:37.681Z,6.13
2019-03-18T10:47:05.484Z,6.17
2019-03-18T10:49:41.406Z,6.23
2019-03-18T10:52:00.063Z,6.30
2019-03-18T10:54:31.066Z,6.36
2019-03-18T10:56:54.640Z,6.42
2019-03-18T10:59:20.665Z,6.46
2019-03-18T11:01:46.674Z,6.51
2019-03-18T11:04:13.311Z,6.51
2019-03-18T11:06:39.513Z,6.51
2019-03-18T11:09:05.689Z,6.52
2019-03-18T11:11:32.229Z,6.50
2019-03-18T11:13:58.406Z,6.30
2019-03-18T11:16:24.684Z,6.22
2019-03-18T11:18:50.978Z,6.16
2019-03-18T11:21:17.279Z,6.10
2019-03-18T11:23:43.537Z,6.14
2019-03-18T11:26:09.729Z,6.14
2019-03-18T11:28:36.034Z,6.18
2019-03-18T11:31:02.379Z,6.17
2019-03-18T11:33:28.732Z,6.18
2019-03-18T11:35:55.787Z,6.19
2019-03-18T11:38:22.185Z,6.23
2019-03-18T11:40:48.522Z,6.28
2019-03-18T11:43:14.853Z,6.31
2019-03-18T11:45:41.130Z,6.35
2019-03-18T11:48:07.494Z,6.33
2019-03-18T11:50:33.811Z,6.35
2019-03-18T11:53:00.090Z,6.38
2019-03-18T11:55:26.253Z,6.43
2019-03-18T11:57:52.365Z,6.48
2019-03-18T12:00:22.574Z,6.53
2019-03-18T12:02:48.845Z,6.55
2019-03-18T12:05:26.475Z,6.49
2019-03-18T12:07:52.686Z,6.37
2019-03-18T12:10:19.577Z,6.37
2019-03-18T12:12:46.297Z,6.36
2019-03-18T12:15:16.769Z,6.38
2019-03-18T12:17:43.041Z,6.36
2019-03-18T12:20:23.204Z,6.32
2019-03-18T12:22:40.871Z,6.35
2019-03-18T12:25:08.088Z,6.36
2019-03-18T12:27:34.638Z,6.38
2019-03-18T12:30:04.065Z,6.44
2019-03-18T12:32:30.280Z,6.48
2019-03-18T12:34:56.570Z,6.47
2019-03-18T12:37:23.004Z,6.42
2019-03-18T12:39:49.273Z,6.36
2019-03-18T12:42:15.708Z,6.36
2019-03-18T12:44:43.942Z,6.45
2019-03-18T12:47:10.367Z,6.51
2019-03-18T12:49:36.807Z,6.48
2019-03-18T12:52:04.068Z,6.51
2019-03-18T12:54:30.402Z,6.55
2019-03-18T12:56:56.689Z,6.48
2019-03-18T12:59:22.941Z,6.46
2019-03-18T13:01:55.673Z,6.49
2019-03-18T13:04:19.498Z,6.57
2019-03-18T13:06:45.780Z,6.64
2019-03-18T13:09:12.098Z,6.69
2019-03-18T13:11:38.374Z,6.74
2019-03-18T13:14:04.774Z,6.73
2019-03-18T13:16:31.066Z,6.74
2019-03-18T13:18:57.437Z,6.77
2019-03-18T13:21:23.743Z,6.78
2019-03-18T13:23:49.940Z,6.75
2019-03-18T13:26:16.343Z,6.77
2019-03-18T13:28:42.616Z,6.77
2019-03-18T13:31:08.922Z,6.74
2019-03-18T13:33:37.948Z,6.70
2019-03-18T13:36:04.274Z,6.71
2019-03-18T13:38:30.438Z,6.70
2019-03-18T13:40:56.838Z,6.72
2019-03-18T13:43:23.063Z,6.74
2019-03-18T13:45:55.125Z,6.72
2019-03-18T13:48:18.920Z,6.72
2019-03-18T13:50:45.175Z,6.69
2019-03-18T13:53:11.491Z,6.70
2019-03-18T13:55:37.614Z,6.71
2019-03-18T13:58:03.867Z,6.72
2019-03-18T14:00:31.351Z,6.71
2019-03-18T14:02:57.627Z,6.71
2019-03-18T14:05:23.859Z,6.71
2019-03-18T14:08:00.133Z,6.72
2019-03-18T14:10:23.209Z,6.73
2019-03-18T14:12:49.535Z,6.65
2019-03-18T14:15:18.205Z,6.67
2019-03-18T14:30:23.872Z,6.53
2019-03-18T14:32:50.372Z,6.57
2019-03-18T14:35:21.322Z,6.59
2019-03-18T14:37:48.183Z,6.62
2019-03-18T14:40:19.778Z,6.66
2019-03-18T14:42:46.196Z,6.66
2019-03-18T14:45:34.497Z,6.67
2019-03-18T14:48:00.838Z,6.65
2019-03-18T14:50:27.108Z,6.64
2019-03-18T14:52:53.416Z,6.65
2019-03-18T14:55:19.756Z,6.68
2019-03-18T14:57:45.953Z,6.71
2019-03-18T15:00:20.839Z,6.72
2019-03-18T15:02:47.074Z,6.73
2019-03-18T15:05:16.033Z,6.74
2019-03-18T15:09:19.530Z,6.75
2019-03-18T15:10:15.082Z,6.75
2019-03-18T15:12:41.356Z,6.77
2019-03-18T15:15:15.435Z,6.78
2019-03-18T15:17:43.701Z,6.78
2019-03-18T15:20:12.347Z,6.79
2019-03-18T15:22:39.350Z,6.77
2019-03-18T15:25:14.338Z,6.74
2019-03-18T15:27:40.653Z,6.70
2019-03-18T15:30:12.835Z,6.64
2019-03-18T15:32:39.276Z,6.63
2019-03-18T15:35:07.572Z,6.64
2019-03-18T15:37:33.757Z,6.61
2019-03-18T15:40:00.352Z,6.61
2019-03-18T15:42:26.682Z,6.61
2019-03-18T15:44:52.957Z,6.55
2019-03-18T15:47:19.249Z,6.55
2019-03-18T15:49:45.443Z,6.56
2019-03-18T15:52:11.695Z,6.53
2019-03-18T15:54:37.903Z,6.46
2019-03-18T15:57:06.256Z,6.48
2019-03-18T15:59:36.129Z,6.43
2019-03-18T16:02:17.700Z,6.39
2019-03-18T16:04:47.466Z,6.42
2019-03-18T16:07:20.200Z,6.44
2019-03-18T16:09:51.748Z,6.45
2019-03-18T16:12:18.251Z,6.46
2019-03-18T16:14:44.580Z,6.45
2019-03-18T16:17:10.767Z,6.46
2019-03-18T16:19:37.108Z,6.47
2019-03-18T16:22:03.372Z,6.47
2019-03-18T16:24:29.727Z,6.47
2019-03-18T16:26:55.890Z,6.42
2019-03-18T16:29:22.863Z,6.39
2019-03-18T16:31:49.075Z,6.38
2019-03-18T16:34:15.355Z,6.38
2019-03-18T16:36:41.671Z,6.39
2019-03-18T16:39:07.962Z,6.40
2019-03-18T16:41:36.585Z,6.41
2019-03-18T16:44:06.684Z,6.36
2019-03-18T16:46:33.366Z,6.40
2019-03-18T16:48:59.699Z,6.39
2019-03-18T16:51:26.043Z,6.37
2019-03-18T16:53:52.387Z,6.34
2019-03-18T16:56:20.618Z,6.34
2019-03-18T17:01:21.066Z,6.30
2019-03-18T17:03:49.170Z,6.30
2019-03-18T17:06:15.528Z,6.30
2019-03-18T17:08:55.834Z,6.26
2019-03-18T17:11:22.240Z,6.13
2019-03-18T17:20:40.665Z,6.06
2019-03-18T17:32:14.655Z,6.00
2019-03-18T17:35:17.957Z,6.01
2019-03-18T17:37:44.615Z,6.01
2019-03-18T17:40:13.881Z,5.98
2019-03-18T17:42:40.390Z,5.98
2019-03-18T17:45:09.221Z,5.97
2019-03-18T17:47:45.729Z,5.96
2019-03-18T17:50:29.793Z,5.93
2019-03-18T17:53:03.258Z,5.91
2019-03-18T18:01:33.603Z,5.88
2019-03-18T18:11:08.040Z,5.70
2019-03-18T18:26:37.578Z,5.68
2019-03-18T18:29:03.858Z,5.66
2019-03-18T18:31:30.129Z,5.64
2019-03-18T18:33:56.395Z,5.62
2019-03-18T18:36:25.191Z,5.63
2019-03-18T18:38:50.663Z,5.63
2019-03-18T18:41:18.565Z,5.61
2019-03-18T18:43:44.833Z,5.58
2019-03-18T18:46:11.185Z,5.56
2019-03-18T18:48:37.467Z,5.54
2019-03-18T18:51:03.759Z,5.52
2019-03-18T18:53:30.007Z,5.50
2019-03-18T18:55:56.159Z,5.48
2019-03-18T18:58:22.090Z,5.46
2019-03-18T19:00:48.131Z,5.45
2019-03-18T19:03:14.649Z,5.44
2019-03-18T19:05:40.853Z,5.42
2019-03-18T19:08:07.001Z,5.41
2019-03-18T19:10:33.276Z,5.38
2019-03-18T19:12:59.506Z,5.38
2019-03-18T19:15:27.662Z,5.37
2019-03-18T19:17:53.967Z,5.35
2019-03-18T19:20:20.293Z,5.32
2019-03-18T19:22:47.028Z,5.31
2019-03-18T19:25:14.334Z,5.31
2019-03-18T19:27:40.522Z,5.32
2019-03-18T19:30:12.426Z,5.32
2019-03-18T19:32:38.373Z,5.32
2019-03-18T19:35:04.608Z,5.31
2019-03-18T19:37:30.945Z,5.31
2019-03-18T19:39:56.971Z,5.30
2019-03-18T19:42:23.314Z,5.26
2019-03-18T19:44:49.583Z,5.24
2019-03-18T19:47:15.955Z,5.19
2019-03-18T19:49:42.076Z,5.16
2019-03-18T19:52:08.329Z,5.15
2019-03-18T19:54:34.504Z,5.16
2019-03-18T19:57:00.692Z,5.15
2019-03-18T19:59:26.981Z,5.14
2019-03-18T20:01:53.355Z,5.15
2019-03-18T20:04:27.242Z,5.15
2019-03-18T20:06:53.332Z,5.13
2019-03-18T20:09:19.812Z,5.14
2019-03-18T20:11:46.154Z,5.09
2019-03-18T20:14:12.422Z,4.99
2019-03-18T20:16:38.762Z,5.02
2019-03-18T20:19:05.042Z,5.05
2019-03-18T20:21:31.154Z,4.99
2019-03-18T20:24:01.009Z,4.84
2019-03-18T20:26:27.038Z,4.98
2019-03-18T20:28:56.589Z,4.97
2019-03-18T20:31:26.024Z,4.97
2019-03-18T20:33:50.685Z,4.90
2019-03-18T20:36:17.018Z,4.92
2019-03-18T20:38:43.340Z,4.87
2019-03-18T20:41:29.052Z,4.87
2019-03-18T20:43:58.714Z,4.87
2019-03-18T20:46:31.034Z,4.88
2019-03-18T20:54:55.276Z,4.86
2019-03-18T20:57:41.182Z,4.87
2019-03-18T20:59:46.607Z,4.86
2019-03-18T21:02:12.875Z,4.84
2019-03-18T21:04:42.709Z,4.83
2019-03-18T21:07:12.848Z,4.82
2019-03-18T21:09:39.108Z,4.81
2019-03-18T21:12:05.319Z,4.80
2019-03-18T21:14:31.662Z,4.78
2019-03-18T21:16:58.038Z,4.78
2019-03-18T21:19:24.388Z,4.77
2019-03-18T21:21:50.718Z,4.75
2019-03-18T21:24:22.999Z,4.71
2019-03-18T21:26:46.488Z,4.70
2019-03-18T21:29:12.806Z,4.67
2019-03-18T21:31:38.961Z,4.56
2019-03-18T21:34:05.275Z,4.45
2019-03-18T21:36:37.852Z,4.50
2019-03-18T21:38:59.703Z,4.51
2019-03-18T21:41:27.235Z,4.51
2019-03-18T21:43:53.846Z,4.52
2019-03-18T21:46:20.166Z,4.51
2019-03-18T21:48:46.463Z,4.52
2019-03-18T21:51:12.767Z,4.50
2019-03-18T21:53:39.076Z,4.48
2019-03-18T21:56:05.509Z,4.43
2019-03-18T21:58:33.979Z,4.34
2019-03-18T22:01:00.239Z,4.32
2019-03-18T22:03:26.346Z,4.31
2019-03-18T22:05:52.792Z,4.31
2019-03-18T22:08:19.164Z,4.25
2019-03-18T22:10:45.474Z,4.17
2019-03-18T22:13:11.769Z,4.12
2019-03-18T22:15:38.013Z,4.13
2019-03-18T22:18:05.522Z,4.12
2019-03-18T22:20:32.885Z,4.07
2019-03-18T22:22:59.090Z,4.05
2019-03-18T22:25:25.459Z,4.03
2019-03-18T22:27:51.777Z,4.02
2019-03-18T22:30:19.954Z,3.95
2019-03-18T22:32:46.210Z,3.90
2019-03-18T22:35:12.598Z,3.87
2019-03-18T22:37:38.953Z,3.80
2019-03-18T22:40:10.100Z,3.61
2019-03-18T22:42:38.897Z,3.58
2019-03-18T22:45:07.792Z,3.55
2019-03-18T22:47:35.520Z,3.56
2019-03-18T22:50:03.512Z,3.55
2019-03-18T22:52:29.778Z,3.41
2019-03-18T22:54:56.388Z,3.30
2019-03-18T22:57:22.718Z,3.28
2019-03-18T22:59:49.127Z,3.28
2019-03-18T23:02:15.516Z,3.26
2019-03-18T23:04:41.819Z,3.21
2019-03-18T23:07:39.354Z,3.22
2019-03-18T23:10:06.498Z,3.22
2019-03-18T23:12:32.811Z,3.19
2019-03-18T23:14:58.992Z,3.17
2019-03-18T23:17:25.288Z,3.18
2019-03-18T23:19:51.511Z,3.20
2019-03-18T23:22:17.825Z,3.20
2019-03-18T23:28:20.442Z,3.19
2019-03-18T23:30:46.769Z,3.20
2019-03-18T23:33:12.949Z,3.14
2019-03-18T23:35:39.254Z,3.06
2019-03-18T23:38:05.570Z,3.06
2019-03-18T23:40:31.897Z,3.04
2019-03-18T23:42:58.233Z,3.03
2019-03-18T23:45:24.535Z,3.01
2019-03-18T23:47:50.860Z,3.00
2019-03-18T23:50:17.119Z,2.99
2019-03-18T23:52:43.422Z,2.93
2019-03-18T23:55:18.431Z,2.92
2019-03-18T23:57:37.939Z,2.88
